Savanna, Oklahoma
Current Conditions -  °F | °C
As of 7:53 AM on Thursday 27 Nov 2014 (Local Time) from KMLC Reporting Station
Clear Clear  
Wind Chill: 26°   Ceiling: Unl
Heat Index: 32°   Visibility: 10mi
Dew Point: 25°   Wind: 6mph
Humidity: 75%   Direction: 360°N
Pressure: 30.55"   Gusts: NA
Location:  34.83°N, 95.84°W
Report Text: KMLC 271353Z AUTO 36005KT 10SM CLR 00/M04 A3055 RMK AO2 SLP349 T00001039
Loading
Personal Weather Stations






























Interactive Weather Map New forecast layout! Learn more

10-Day Weather Forecast

Advertisements
Track Severe Weather on mobile